Time;durP1;ratioP1;P1;durP2;ratioP2;P2;SDS_P1;SDS_P2;PMS_P1;PMS_P2;Temp;Humidity;BMP_temperature;BMP_pressure;BME280_temperature;BME280_humidity;BME280_pressure;Samples;Min_cycle;Max_cycle;Signal;HPM_P1;HPM_P2
2022/02/07 11:05:17;;;;;;;1.17;0.60;;;7.90;99.90;;;;;;4953665;29;20212;-71
2022/02/07 11:07:44;;;;;;;1.90;0.63;;;7.90;99.90;;;;;;4954984;29;20295;-71
2022/02/07 11:10:33;;;;;;;2.97;0.50;;;7.80;99.90;;;;;;4954980;29;20239;-76
2022/02/07 11:16:03;;;;;;;4.90;1.00;;;7.80;99.90;;;;;;4935144;28;20564;-76
2022/02/07 11:19:01;;;;;;;4.37;0.67;;;7.90;99.90;;;;;;4955166;29;20220;-76
2022/02/07 11:21:37;;;;;;;3.07;0.47;;;7.90;99.90;;;;;;4955105;29;20229;-74
2022/02/07 11:24:29;;;;;;;3.63;0.70;;;7.90;99.90;;;;;;4954626;29;20666;-76
2022/02/07 11:27:19;;;;;;;7.77;0.60;;;7.90;99.90;;;;;;4954904;29;20208;-75
2022/02/07 11:29:50;;;;;;;5.57;0.60;;;8.00;99.90;;;;;;4954637;29;20236;-76
2022/02/07 11:32:54;;;;;;;1.33;0.53;;;8.10;99.90;;;;;;4954359;29;20234;-76
2022/02/07 11:35:24;;;;;;;5.17;0.70;;;8.20;99.90;;;;;;4954946;28;20600;-75
2022/02/07 11:38:10;;;;;;;5.70;0.50;;;8.10;99.90;;;;;;4954764;29;20215;-76
2022/02/07 11:40:38;;;;;;;4.37;0.83;;;8.10;99.90;;;;;;4954793;29;20222;-75
2022/02/07 11:43:11;;;;;;;7.60;0.70;;;8.10;99.90;;;;;;4957297;28;20232;-75
2022/02/07 11:45:54;;;;;;;4.33;0.57;;;8.20;99.90;;;;;;4958640;29;20208;-76
2022/02/07 11:48:31;;;;;;;5.63;0.83;;;8.30;99.90;;;;;;4957955;29;20214;-74
2022/02/07 11:51:00;;;;;;;4.97;0.90;;;8.20;99.90;;;;;;4957802;29;20218;-76
2022/02/07 11:53:46;;;;;;;5.13;0.83;;;8.20;99.90;;;;;;4958506;28;20236;-75
2022/02/07 11:56:20;;;;;;;5.60;0.90;;;8.10;99.90;;;;;;4955245;28;20238;-75
2022/02/07 11:59:12;;;;;;;2.17;0.60;;;8.00;99.90;;;;;;4944215;29;20223;-74
2022/02/07 12:01:58;;;;;;;4.27;0.80;;;8.10;99.90;;;;;;4946032;29;20205;-73
2022/02/07 12:04:27;;;;;;;5.60;1.47;;;8.20;99.90;;;;;;4943048;29;20205;-76
2022/02/07 12:07:16;;;;;;;2.37;0.53;;;8.20;99.90;;;;;;4944571;29;20216;-73
2022/02/07 12:10:13;;;;;;;7.57;0.97;;;8.10;99.90;;;;;;4950722;28;20288;-71
2022/02/07 12:12:47;;;;;;;5.43;0.70;;;8.10;99.90;;;;;;4943782;29;20280;-74
2022/02/07 12:15:20;;;;;;;2.10;0.30;;;8.20;99.90;;;;;;4947611;29;20200;-73
2022/02/07 12:17:50;;;;;;;3.23;0.63;;;8.20;99.90;;;;;;4947728;29;20694;-75
2022/02/07 12:20:19;;;;;;;1.43;0.50;;;8.30;99.90;;;;;;4949419;29;20208;-76
2022/02/07 12:22:53;;;;;;;0.70;0.40;;;8.30;99.90;;;;;;4951096;28;20256;-75
2022/02/07 12:25:44;;;;;;;2.40;0.50;;;8.40;99.90;;;;;;4955005;29;20227;-75
2022/02/07 12:28:16;;;;;;;3.73;0.40;;;8.30;99.90;;;;;;4936877;29;20216;-75
2022/02/07 12:30:58;;;;;;;2.93;0.90;;;8.20;99.90;;;;;;4950774;29;20271;-74
2022/02/07 12:33:27;;;;;;;1.80;0.50;;;8.30;99.90;;;;;;4955377;29;20267;-73
2022/02/07 12:35:56;;;;;;;2.23;0.53;;;8.40;99.90;;;;;;4949955;29;20209;-74
2022/02/07 12:38:23;;;;;;;0.93;0.43;;;8.50;99.90;;;;;;4936201;29;20216;-72
2022/02/07 12:40:50;;;;;;;0.90;0.53;;;8.60;99.90;;;;;;4951294;29;20208;-73
2022/02/07 12:43:20;;;;;;;1.20;0.53;;;8.50;99.90;;;;;;4955026;29;20228;-72
2022/02/07 12:45:47;;;;;;;4.87;0.80;;;8.50;99.90;;;;;;4950495;29;20686;-71
2022/02/07 12:48:18;;;;;;;3.03;0.60;;;8.40;99.90;;;;;;4936392;29;20215;-70
2022/02/07 12:50:51;;;;;;;4.77;0.67;;;8.40;99.90;;;;;;4944935;29;20236;-70
2022/02/07 12:53:18;;;;;;;11.33;1.30;;;8.40;99.90;;;;;;4935175;29;20232;-68
2022/02/07 12:55:46;;;;;;;2.30;0.50;;;8.30;99.90;;;;;;4935286;29;20545;-72
2022/02/07 12:58:13;;;;;;;3.33;0.63;;;8.30;99.90;;;;;;4935337;29;20197;-70
2022/02/07 13:00:40;;;;;;;3.60;0.53;;;8.30;99.90;;;;;;4939663;29;20686;-72
2022/02/07 13:03:07;;;;;;;4.03;0.70;;;8.40;99.90;;;;;;4955004;29;20224;-71
2022/02/07 13:05:35;;;;;;;1.00;0.33;;;8.50;99.90;;;;;;4947625;29;20223;-71
2022/02/07 13:08:03;;;;;;;2.33;0.50;;;8.40;99.90;;;;;;4935742;29;20217;-70
2022/02/07 13:10:35;;;;;;;4.80;0.50;;;8.40;99.90;;;;;;4948421;29;20236;-71
2022/02/07 13:13:21;;;;;;;2.93;0.73;;;8.40;99.90;;;;;;4954818;29;20224;-70
2022/02/07 13:15:50;;;;;;;1.60;0.60;;;8.40;99.90;;;;;;4952500;29;20670;-69
2022/02/07 13:18:20;;;;;;;3.87;0.60;;;8.40;99.90;;;;;;4937073;29;20205;-71
2022/02/07 13:20:46;;;;;;;1.50;0.57;;;8.50;99.90;;;;;;4936004;29;20617;-69
2022/02/07 13:23:17;;;;;;;1.97;0.40;;;8.50;99.90;;;;;;4938537;29;20307;-70
2022/02/07 13:25:46;;;;;;;3.40;0.60;;;8.40;99.90;;;;;;4941229;29;20321;-69
2022/02/07 13:28:14;;;;;;;3.20;0.60;;;8.50;99.90;;;;;;4943997;29;20283;-70
2022/02/07 13:30:42;;;;;;;3.37;0.50;;;8.50;99.90;;;;;;4954896;28;20243;-69
2022/02/07 13:33:09;;;;;;;2.43;0.80;;;8.60;99.90;;;;;;4941562;28;20231;-69
2022/02/07 13:35:39;;;;;;;1.07;0.50;;;8.50;99.90;;;;;;4950560;29;20205;-68
2022/02/07 13:38:07;;;;;;;3.70;0.77;;;8.60;99.90;;;;;;4935257;29;20216;-70
2022/02/07 13:40:41;;;;;;;6.03;0.80;;;8.60;99.90;;;;;;4947906;29;20722;-69
2022/02/07 13:43:19;;;;;;;1.43;0.40;;;8.70;99.90;;;;;;4954834;29;20580;-70
2022/02/07 13:45:49;;;;;;;3.43;0.57;;;8.70;99.90;;;;;;4937934;29;20209;-70
2022/02/07 13:48:18;;;;;;;2.50;0.40;;;8.60;99.90;;;;;;4934577;29;20620;-72
2022/02/07 13:50:48;;;;;;;3.97;0.53;;;8.50;99.90;;;;;;4941354;29;20276;-73
2022/02/07 13:53:17;;;;;;;3.13;0.50;;;8.40;99.90;;;;;;4940070;29;20228;-72
2022/02/07 13:55:48;;;;;;;2.90;0.83;;;8.40;99.90;;;;;;4936933;29;20208;-67
2022/02/07 13:58:17;;;;;;;1.40;0.30;;;8.40;99.90;;;;;;4935205;29;20209;-71
2022/02/07 14:00:56;;;;;;;5.73;0.60;;;8.30;99.90;;;;;;4941737;28;20197;-72
2022/02/07 14:03:26;;;;;;;2.07;0.40;;;8.40;99.90;;;;;;4942470;28;20232;-68
2022/02/07 14:05:55;;;;;;;2.83;0.43;;;8.40;99.90;;;;;;4934513;29;20229;-69
2022/02/07 14:08:36;;;;;;;3.20;0.50;;;8.50;99.90;;;;;;4944304;29;20265;-70
2022/02/07 14:11:07;;;;;;;2.13;0.50;;;8.50;99.90;;;;;;4944496;29;20801;-68
2022/02/07 14:13:34;;;;;;;1.77;0.50;;;8.50;99.90;;;;;;4938965;29;20213;-69
2022/02/07 14:16:03;;;;;;;4.37;0.60;;;8.50;99.90;;;;;;4947142;29;20199;-69
2022/02/07 14:18:32;;;;;;;3.03;1.03;;;8.60;99.90;;;;;;4936313;29;20220;-68
2022/02/07 14:21:01;;;;;;;2.00;0.30;;;8.70;99.90;;;;;;4948856;28;20222;-69
2022/02/07 14:23:29;;;;;;;1.87;0.47;;;8.80;99.90;;;;;;4944432;29;20317;-69
2022/02/07 14:26:00;;;;;;;2.00;0.43;;;8.70;99.90;;;;;;4947122;28;20252;-68
2022/02/07 14:28:28;;;;;;;2.80;0.30;;;8.60;99.90;;;;;;4934617;29;20201;-68
2022/02/07 14:30:55;;;;;;;3.70;0.50;;;8.70;99.90;;;;;;4945791;29;20235;-69
2022/02/07 14:33:22;;;;;;;3.43;0.73;;;8.70;99.90;;;;;;4941461;29;20703;-69
2022/02/07 14:35:49;;;;;;;1.10;0.50;;;8.60;99.90;;;;;;4945313;29;20208;-71
2022/02/07 14:38:16;;;;;;;2.87;1.23;;;8.60;99.90;;;;;;4945205;29;20210;-70
2022/02/07 14:40:43;;;;;;;3.10;0.60;;;8.60;99.90;;;;;;4938458;29;20211;-73
2022/02/07 14:43:14;;;;;;;2.30;0.60;;;8.70;99.90;;;;;;4948475;29;20315;-72
2022/02/07 14:45:54;;;;;;;2.73;0.50;;;8.70;99.90;;;;;;4953131;29;20326;-72
2022/02/07 14:48:22;;;;;;;6.43;0.40;;;8.60;99.90;;;;;;4934934;29;20227;-71
2022/02/07 14:50:49;;;;;;;5.00;0.40;;;8.60;99.90;;;;;;4944638;29;20596;-72
2022/02/07 14:53:16;;;;;;;4.53;0.70;;;8.40;99.90;;;;;;4934885;29;20240;-69
2022/02/07 14:55:43;;;;;;;3.13;0.47;;;8.50;99.90;;;;;;4942489;29;20207;-72
2022/02/07 14:58:10;;;;;;;5.20;1.13;;;8.40;99.90;;;;;;4946093;28;20568;-68
2022/02/07 15:00:38;;;;;;;1.00;0.40;;;8.40;99.90;;;;;;4934759;29;20312;-68
2022/02/07 15:03:07;;;;;;;0.97;0.40;;;8.40;99.90;;;;;;4935236;29;20260;-71
2022/02/07 15:05:35;;;;;;;2.70;0.43;;;8.30;99.90;;;;;;4934997;29;20227;-71
2022/02/07 15:08:03;;;;;;;8.80;0.67;;;8.30;99.90;;;;;;4935055;29;20233;-68
2022/02/07 15:10:31;;;;;;;2.63;0.50;;;8.30;99.90;;;;;;4935476;29;20236;-68
2022/02/07 15:12:58;;;;;;;2.67;1.03;;;8.30;99.90;;;;;;4934774;29;20708;-67
2022/02/07 15:15:25;;;;;;;5.07;0.80;;;8.20;99.90;;;;;;4935388;29;20220;-71
2022/02/07 15:17:54;;;;;;;2.10;0.30;;;8.20;99.90;;;;;;4934719;29;20220;-72
2022/02/07 15:20:23;;;;;;;2.97;0.70;;;8.30;99.90;;;;;;4934963;29;20213;-73
2022/02/07 15:22:50;;;;;;;4.10;0.50;;;8.30;99.90;;;;;;4934861;29;20288;-68
2022/02/07 15:25:19;;;;;;;2.30;0.70;;;8.30;99.90;;;;;;4941363;29;20711;-68
2022/02/07 15:27:47;;;;;;;6.60;0.77;;;8.30;99.90;;;;;;4945648;29;20208;-70
2022/02/07 15:30:15;;;;;;;1.20;0.53;;;8.40;99.90;;;;;;4934514;29;20272;-69
2022/02/07 15:32:45;;;;;;;2.73;0.67;;;8.30;99.90;;;;;;4938022;29;20224;-71
2022/02/07 15:35:12;;;;;;;3.57;0.80;;;8.20;99.90;;;;;;4941655;29;20208;-73
2022/02/07 15:37:41;;;;;;;3.20;0.67;;;8.10;99.90;;;;;;4934556;29;20235;-73
2022/02/07 15:40:10;;;;;;;0.73;0.43;;;7.90;99.90;;;;;;4951589;29;20678;-72
2022/02/07 15:42:37;;;;;;;2.00;0.77;;;8.00;99.90;;;;;;4934858;29;20229;-73
2022/02/07 15:45:05;;;;;;;6.50;0.70;;;7.90;99.90;;;;;;4935163;29;20544;-71
2022/02/07 15:47:34;;;;;;;3.30;0.50;;;7.90;99.90;;;;;;4935252;29;20208;-72
2022/02/07 15:50:01;;;;;;;2.23;0.60;;;7.90;99.90;;;;;;4934639;29;20323;-73
2022/02/07 15:52:28;;;;;;;1.80;0.70;;;7.80;99.90;;;;;;4934440;29;20235;-73
2022/02/07 15:54:58;;;;;;;4.33;0.70;;;7.80;99.90;;;;;;4935277;29;20583;-72
2022/02/07 15:57:25;;;;;;;2.00;0.60;;;7.90;99.90;;;;;;4953282;29;20666;-68
2022/02/07 15:59:51;;;;;;;4.23;1.10;;;7.80;99.90;;;;;;4952888;29;20567;-69
2022/02/07 16:02:18;;;;;;;0.37;0.30;;;7.70;99.90;;;;;;4934196;29;20584;-70
2022/02/07 16:04:45;;;;;;;5.00;0.67;;;7.70;99.90;;;;;;4933526;29;20217;-73
2022/02/07 16:07:12;;;;;;;4.27;0.50;;;7.60;99.90;;;;;;4933918;29;20213;-69
2022/02/07 16:09:41;;;;;;;2.03;0.50;;;7.60;99.90;;;;;;4960491;23;20239;-77
2022/02/07 16:12:13;;;;;;;3.57;0.47;;;7.60;99.90;;;;;;4953052;29;20966;-73
2022/02/07 16:14:40;;;;;;;3.53;0.80;;;7.50;99.90;;;;;;4953142;28;20731;-75
2022/02/07 16:17:08;;;;;;;4.03;0.70;;;7.60;99.90;;;;;;4954072;28;20214;-73
2022/02/07 16:19:36;;;;;;;3.07;0.60;;;7.60;99.90;;;;;;4945378;28;20209;-73
2022/02/07 16:22:03;;;;;;;3.10;0.50;;;7.60;99.90;;;;;;4935025;29;20284;-73
2022/02/07 16:24:30;;;;;;;1.17;0.47;;;7.60;99.90;;;;;;4933955;29;20209;-73
2022/02/07 16:26:57;;;;;;;5.33;0.60;;;7.50;99.90;;;;;;4939253;29;20213;-72
2022/02/07 16:29:25;;;;;;;3.27;0.67;;;7.50;99.90;;;;;;4936964;29;20209;-72
2022/02/07 16:31:52;;;;;;;2.40;0.70;;;7.50;99.90;;;;;;4937601;29;20714;-72
2022/02/07 16:34:21;;;;;;;3.43;0.80;;;7.40;99.90;;;;;;4938166;29;20213;-73
2022/02/07 16:36:50;;;;;;;3.17;1.50;;;7.30;99.90;;;;;;4954993;29;20204;-76
2022/02/07 16:39:18;;;;;;;15.60;4.83;;;7.30;99.90;;;;;;4957257;29;20204;-79
2022/02/07 16:41:47;;;;;;;9.40;3.23;;;7.20;99.90;;;;;;4944879;29;20319;-78
2022/02/07 16:44:14;;;;;;;5.27;1.73;;;7.20;99.90;;;;;;4943514;29;20208;-77
2022/02/07 16:46:49;;;;;;;9.27;4.00;;;7.20;99.90;;;;;;4941841;29;20684;-75
2022/02/07 16:49:17;;;;;;;2.90;1.73;;;7.20;99.90;;;;;;4939343;29;20223;-74
2022/02/07 16:51:43;;;;;;;3.03;0.87;;;7.10;99.90;;;;;;4938349;29;20252;-75
2022/02/07 16:54:11;;;;;;;2.87;0.60;;;7.10;99.90;;;;;;4937710;29;20219;-73
2022/02/07 16:56:38;;;;;;;1.43;0.80;;;7.00;99.90;;;;;;4950503;29;20283;-75
2022/02/07 16:59:06;;;;;;;4.80;1.00;;;7.00;99.90;;;;;;4942778;29;20614;-74
2022/02/07 17:01:33;;;;;;;4.33;0.90;;;7.00;99.90;;;;;;4937253;29;20213;-76
2022/02/07 17:04:01;;;;;;;2.57;0.73;;;6.90;99.90;;;;;;4937744;29;20240;-76
2022/02/07 17:06:28;;;;;;;4.20;0.70;;;6.90;99.90;;;;;;4940572;29;20291;-76
2022/02/07 17:08:56;;;;;;;3.47;1.00;;;6.80;99.90;;;;;;4938206;29;20672;-73
2022/02/07 17:11:24;;;;;;;3.67;0.67;;;6.70;99.90;;;;;;4937910;29;20237;-77
2022/02/07 17:13:51;;;;;;;3.67;0.70;;;6.50;99.90;;;;;;4936524;29;20244;-76
2022/02/07 17:16:19;;;;;;;2.53;1.33;;;6.50;99.90;;;;;;4937537;29;20204;-73
2022/02/07 17:18:46;;;;;;;1.33;0.70;;;6.60;99.90;;;;;;4937146;29;20204;-75
2022/02/07 17:21:14;;;;;;;2.07;1.00;;;6.60;99.90;;;;;;4937286;29;20220;-79
2022/02/07 17:23:41;;;;;;;1.50;0.70;;;6.60;99.90;;;;;;4938793;29;20255;-73
2022/02/07 17:26:08;;;;;;;3.70;1.00;;;6.60;99.90;;;;;;4937329;29;20212;-78
2022/02/07 17:28:36;;;;;;;2.43;0.80;;;6.50;99.90;;;;;;4937809;29;20204;-81
2022/02/07 17:31:04;;;;;;;4.60;0.90;;;6.50;99.90;;;;;;4946163;28;20236;-74
2022/02/07 17:33:33;;;;;;;4.83;1.30;;;6.50;99.90;;;;;;4935336;29;20753;-74
2022/02/07 17:36:00;;;;;;;5.70;1.00;;;6.40;99.90;;;;;;4934632;29;20214;-80
2022/02/07 17:38:31;;;;;;;2.13;0.87;;;6.40;99.90;;;;;;4938511;29;20200;-75
2022/02/07 17:40:58;;;;;;;6.10;1.10;;;6.40;99.90;;;;;;4945533;28;20294;-73
2022/02/07 17:43:31;;;;;;;1.60;0.70;;;6.40;99.90;;;;;;4953999;28;20702;-74
2022/02/07 17:45:58;;;;;;;4.63;0.73;;;6.30;99.90;;;;;;4954476;28;20211;-73
2022/02/07 17:48:25;;;;;;;4.13;1.23;;;6.20;99.90;;;;;;4945989;29;20685;-76
2022/02/07 17:50:52;;;;;;;3.00;0.80;;;6.20;99.90;;;;;;4939727;29;20271;-76
2022/02/07 17:53:21;;;;;;;1.60;0.83;;;6.20;99.90;;;;;;4935280;29;20690;-80
2022/02/07 17:55:49;;;;;;;1.83;0.70;;;6.20;99.90;;;;;;4943666;29;20675;-76
2022/02/07 17:58:19;;;;;;;3.87;1.00;;;6.10;99.90;;;;;;4949765;28;20216;-74
2022/02/07 18:00:47;;;;;;;5.13;1.00;;;6.20;99.90;;;;;;4948106;28;20211;-73
2022/02/07 18:03:14;;;;;;;4.97;0.80;;;6.00;99.90;;;;;;4935065;29;20239;-75
2022/02/07 18:05:44;;;;;;;3.37;1.13;;;6.00;99.90;;;;;;4934627;29;20209;-73
2022/02/07 18:08:11;;;;;;;5.47;1.00;;;6.00;99.90;;;;;;4935682;29;20727;-80
2022/02/07 18:10:38;;;;;;;3.50;0.90;;;6.10;99.90;;;;;;4940444;28;20264;-75
2022/02/07 18:13:07;;;;;;;1.87;0.93;;;6.10;99.90;;;;;;4937094;29;20291;-78
2022/02/07 18:15:34;;;;;;;2.30;0.90;;;6.10;99.90;;;;;;4950563;29;20200;-79
2022/02/07 18:18:01;;;;;;;2.50;0.90;;;6.10;99.90;;;;;;4954252;29;20734;-74
2022/02/07 18:20:38;;;;;;;3.97;0.93;;;6.00;99.90;;;;;;4934680;29;20219;-74
2022/02/07 18:23:05;;;;;;;5.07;0.83;;;6.00;99.90;;;;;;4934913;29;20239;-73
2022/02/07 18:25:32;;;;;;;2.17;0.80;;;6.00;99.90;;;;;;4933979;29;20311;-76
2022/02/07 18:28:01;;;;;;;2.17;1.07;;;6.00;99.90;;;;;;4945006;29;20200;-73
2022/02/07 18:30:30;;;;;;;3.53;0.93;;;5.90;99.90;;;;;;4934701;29;20205;-74
2022/02/07 18:32:58;;;;;;;4.47;0.80;;;5.90;99.90;;;;;;4935847;29;20224;-77
2022/02/07 18:35:26;;;;;;;4.37;0.80;;;5.90;99.90;;;;;;4934706;29;20204;-75
2022/02/07 18:37:55;;;;;;;6.87;1.10;;;5.90;99.90;;;;;;4939060;29;20295;-75
2022/02/07 18:40:28;;;;;;;7.10;1.87;;;5.90;99.90;;;;;;4946782;29;20205;-74
2022/02/07 18:42:57;;;;;;;3.17;1.00;;;5.90;99.90;;;;;;4940969;28;20314;-78
2022/02/07 18:45:27;;;;;;;7.20;1.23;;;5.80;99.90;;;;;;4942178;29;20811;-78
2022/02/07 18:48:00;;;;;;;3.03;1.80;;;5.90;99.90;;;;;;4939656;28;20291;-73
2022/02/07 18:50:27;;;;;;;4.20;1.60;;;6.00;99.90;;;;;;4944742;29;20664;-73
2022/02/07 18:52:54;;;;;;;4.07;1.17;;;5.90;99.90;;;;;;4952192;28;20239;-79
2022/02/07 18:55:23;;;;;;;4.77;1.17;;;5.90;99.90;;;;;;4945400;28;20220;-78
2022/02/07 18:57:59;;;;;;;3.57;1.40;;;5.90;99.90;;;;;;4952957;28;20204;-74
2022/02/07 19:00:28;;;;;;;4.93;1.83;;;5.90;99.90;;;;;;4949389;28;20790;-75
2022/02/07 19:03:13;;;;;;;4.77;1.30;;;5.90;99.90;;;;;;4934663;29;20264;-81
2022/02/07 19:06:01;;;;;;;5.33;1.40;;;6.00;99.90;;;;;;4934121;29;20204;-80
2022/02/07 19:08:29;;;;;;;6.63;1.70;;;6.00;99.90;;;;;;4937689;29;20247;-81
2022/02/07 19:10:56;;;;;;;4.97;1.50;;;6.10;99.90;;;;;;4945873;28;20212;-77
2022/02/07 19:13:25;;;;;;;4.63;1.43;;;6.30;99.90;;;;;;4934380;29;20235;-73
2022/02/07 19:15:51;;;;;;;6.30;1.80;;;6.30;99.90;;;;;;4934637;29;20264;-74
2022/02/07 19:18:22;;;;;;;11.80;1.63;;;6.30;99.90;;;;;;4936355;29;20219;-81
2022/02/07 19:20:49;;;;;;;3.30;1.77;;;6.30;99.90;;;;;;4946561;29;20707;-74
2022/02/07 19:23:19;;;;;;;7.30;1.30;;;6.40;99.90;;;;;;4953107;29;20279;-76
2022/02/07 19:25:58;;;;;;;9.13;2.07;;;6.40;99.90;;;;;;4952784;29;20562;-74
2022/02/07 19:28:28;;;;;;;5.07;1.30;;;6.30;99.90;;;;;;4942340;29;20211;-75
2022/02/07 19:31:03;;;;;;;4.37;1.43;;;6.20;99.90;;;;;;4939738;28;20561;-77
2022/02/07 19:33:33;;;;;;;5.60;1.33;;;6.30;99.90;;;;;;4942067;29;20624;-74
2022/02/07 19:36:00;;;;;;;7.00;1.60;;;6.30;99.90;;;;;;4934646;29;20205;-74
2022/02/07 19:38:27;;;;;;;3.17;1.20;;;6.20;99.90;;;;;;4934647;29;20213;-75
2022/02/07 19:41:06;;;;;;;5.53;1.30;;;6.20;99.90;;;;;;4934719;29;20668;-74
2022/02/07 19:43:36;;;;;;;5.17;1.90;;;6.10;99.90;;;;;;4943558;29;20225;-73
2022/02/07 19:46:03;;;;;;;5.93;1.50;;;6.10;99.90;;;;;;4942509;29;20208;-74
2022/02/07 19:48:31;;;;;;;3.87;1.67;;;6.00;99.90;;;;;;4944304;29;20204;-74
2022/02/07 19:50:59;;;;;;;6.57;1.40;;;6.00;99.90;;;;;;4936350;29;20208;-74
2022/02/07 19:53:26;;;;;;;5.07;1.23;;;6.00;99.90;;;;;;4942660;29;20227;-74
2022/02/07 19:55:53;;;;;;;5.73;1.50;;;5.90;99.90;;;;;;4945296;28;20213;-74
2022/02/07 19:58:20;;;;;;;6.37;1.50;;;5.90;99.90;;;;;;4939948;28;20686;-72
2022/02/07 20:00:50;;;;;;;6.87;1.27;;;6.00;99.90;;;;;;4939965;29;20304;-74
2022/02/07 20:03:21;;;;;;;4.70;1.50;;;6.10;99.90;;;;;;4951674;28;20235;-75
2022/02/07 20:05:52;;;;;;;6.47;1.50;;;6.20;99.90;;;;;;4938776;29;20217;-75
2022/02/07 20:08:22;;;;;;;6.37;1.63;;;6.20;99.90;;;;;;4938362;29;20224;-74
2022/02/07 20:10:52;;;;;;;5.60;1.37;;;6.30;99.90;;;;;;4942061;29;20232;-73
2022/02/07 20:13:21;;;;;;;2.73;1.00;;;6.30;99.90;;;;;;4946183;29;20237;-72
2022/02/07 20:15:48;;;;;;;3.87;1.40;;;6.40;99.90;;;;;;4938040;29;20212;-73
2022/02/07 20:18:16;;;;;;;6.40;0.90;;;6.50;99.90;;;;;;4938102;29;20686;-73
2022/02/07 20:20:44;;;;;;;14.17;1.83;;;6.50;99.90;;;;;;4942240;29;20295;-73
2022/02/07 20:23:13;;;;;;;4.00;1.27;;;6.50;99.90;;;;;;4937015;29;20869;-72
2022/02/07 20:25:40;;;;;;;4.23;1.50;;;6.60;99.90;;;;;;4937292;29;20213;-72
2022/02/07 20:28:10;;;;;;;6.57;1.37;;;6.70;99.90;;;;;;4941430;29;20698;-72
2022/02/07 20:30:39;;;;;;;7.30;2.50;;;6.80;99.90;;;;;;4936584;29;20315;-75
2022/02/07 20:33:08;;;;;;;7.77;2.10;;;6.80;99.90;;;;;;4946851;28;20275;-73
2022/02/07 20:35:36;;;;;;;10.57;1.30;;;6.80;99.90;;;;;;4948123;29;20239;-71
2022/02/07 20:38:04;;;;;;;6.00;1.20;;;6.90;99.90;;;;;;4944209;29;20215;-72
2022/02/07 20:40:35;;;;;;;4.27;1.00;;;6.90;99.90;;;;;;4940679;29;20232;-70
2022/02/07 20:43:06;;;;;;;6.97;1.57;;;6.90;99.90;;;;;;4949981;29;20596;-73
2022/02/07 20:45:35;;;;;;;6.77;1.30;;;7.00;99.90;;;;;;4944827;29;20631;-72
2022/02/07 20:48:05;;;;;;;2.07;1.00;;;7.10;99.90;;;;;;4940102;28;20209;-76
2022/02/07 20:50:35;;;;;;;3.10;0.90;;;7.10;99.90;;;;;;4951565;28;20209;-74
2022/02/07 20:53:02;;;;;;;9.17;1.30;;;7.20;99.90;;;;;;4938008;29;20240;-74
2022/02/07 20:55:29;;;;;;;9.13;0.90;;;7.30;99.90;;;;;;4940306;29;20652;-72
2022/02/07 20:57:57;;;;;;;7.27;1.53;;;7.30;99.90;;;;;;4944327;29;20208;-76
2022/02/07 21:00:29;;;;;;;3.83;0.60;;;7.30;99.90;;;;;;4951398;29;20205;-71
2022/02/07 21:02:56;;;;;;;5.87;1.80;;;7.30;99.90;;;;;;4951093;29;20247;-72
2022/02/07 21:05:27;;;;;;;15.67;1.50;;;7.20;99.90;;;;;;4954467;28;20211;-74
2022/02/07 21:07:59;;;;;;;12.20;2.20;;;7.30;99.90;;;;;;4954395;28;20212;-73
2022/02/07 21:10:26;;;;;;;1.13;0.60;;;7.30;99.90;;;;;;4940434;29;20201;-75
2022/02/07 21:12:53;;;;;;;8.40;1.43;;;7.40;99.90;;;;;;4937136;29;20251;-72
2022/02/07 21:15:21;;;;;;;3.13;1.00;;;7.40;99.90;;;;;;4951813;28;20242;-74
2022/02/07 21:17:49;;;;;;;7.20;1.03;;;7.40;99.90;;;;;;4956447;29;20212;-76
2022/02/07 21:20:17;;;;;;;3.17;1.10;;;7.40;99.90;;;;;;4956831;29;20212;-71
2022/02/07 21:22:45;;;;;;;6.73;1.10;;;7.40;99.90;;;;;;4956335;28;20228;-75
2022/02/07 21:25:13;;;;;;;6.33;1.30;;;7.40;99.90;;;;;;4951670;28;20204;-76
2022/02/07 21:27:42;;;;;;;5.63;1.20;;;7.40;99.90;;;;;;4956035;28;20212;-74
2022/02/07 21:30:10;;;;;;;6.27;1.17;;;7.40;99.90;;;;;;4956137;28;20218;-74
2022/02/07 21:32:39;;;;;;;4.67;1.57;;;7.40;99.90;;;;;;4944181;29;20237;-73
2022/02/07 21:35:10;;;;;;;4.90;1.20;;;7.40;99.90;;;;;;4941987;29;20204;-75
2022/02/07 21:37:37;;;;;;;8.33;1.03;;;7.40;99.90;;;;;;4946016;29;20196;-74
2022/02/07 21:40:06;;;;;;;15.30;1.30;;;7.40;99.90;;;;;;4936478;29;20208;-75
2022/02/07 21:42:36;;;;;;;12.07;1.70;;;7.50;99.90;;;;;;4943252;29;20232;-73
2022/02/07 21:45:07;;;;;;;5.87;1.30;;;7.50;99.90;;;;;;4938195;28;20216;-71
2022/02/07 21:47:33;;;;;;;7.93;1.00;;;7.50;99.90;;;;;;4941638;29;20208;-71
2022/02/07 21:50:02;;;;;;;7.23;1.00;;;7.50;99.90;;;;;;4955053;29;20208;-72
2022/02/07 21:52:28;;;;;;;7.30;1.13;;;7.50;99.90;;;;;;4954244;29;20576;-70
2022/02/07 21:54:55;;;;;;;4.27;1.00;;;7.50;99.90;;;;;;4955217;29;20212;-71
2022/02/07 21:57:22;;;;;;;4.47;1.00;;;7.50;99.90;;;;;;4943669;29;20205;-70
2022/02/07 21:59:49;;;;;;;7.63;1.00;;;7.50;99.90;;;;;;4943242;29;20216;-71
2022/02/07 22:02:15;;;;;;;7.60;1.03;;;7.70;99.90;;;;;;4946887;29;20223;-70
2022/02/07 22:04:42;;;;;;;10.43;1.50;;;7.70;99.90;;;;;;4944481;29;20211;-71
2022/02/07 22:07:10;;;;;;;8.93;1.07;;;7.70;99.90;;;;;;4942619;29;20200;-72
2022/02/07 22:09:38;;;;;;;2.87;0.70;;;7.70;99.90;;;;;;4942400;23;20585;-68
2022/02/07 22:12:10;;;;;;;7.37;1.60;;;7.60;99.90;;;;;;4912736;29;20233;-70
2022/02/07 22:14:51;;;;;;;8.87;1.07;;;7.70;99.90;;;;;;4905897;29;20197;-68
2022/02/07 22:17:27;;;;;;;10.23;1.60;;;7.80;99.90;;;;;;4900673;29;20595;-69
2022/02/07 22:19:54;;;;;;;4.83;0.90;;;7.90;99.90;;;;;;4897862;29;20225;-68
2022/02/07 22:22:22;;;;;;;10.93;1.20;;;7.80;99.90;;;;;;4897804;29;20231;-69
2022/02/07 22:24:49;;;;;;;4.90;1.43;;;7.90;99.90;;;;;;4898364;29;20207;-69
2022/02/07 22:27:16;;;;;;;6.00;1.00;;;7.90;99.90;;;;;;4898105;29;20206;-69
2022/02/07 22:29:43;;;;;;;2.87;0.80;;;7.90;99.90;;;;;;4898264;29;20216;-69
2022/02/07 22:32:09;;;;;;;8.33;1.23;;;8.10;99.90;;;;;;4898108;29;20270;-69
2022/02/07 22:34:45;;;;;;;4.83;0.97;;;8.00;99.90;;;;;;4897994;29;20211;-69
2022/02/07 22:37:12;;;;;;;5.93;0.80;;;7.90;99.90;;;;;;4898157;29;20209;-69
2022/02/07 22:39:40;;;;;;;7.03;0.80;;;7.80;99.90;;;;;;4898335;29;20221;-69
2022/02/07 22:42:08;;;;;;;11.73;0.97;;;7.90;99.90;;;;;;4898008;29;20237;-70
2022/02/07 22:44:34;;;;;;;3.17;0.90;;;7.80;99.90;;;;;;4897913;29;20215;-70
2022/02/07 22:47:01;;;;;;;8.60;1.47;;;7.80;99.90;;;;;;4898107;29;20233;-70
2022/02/07 22:49:28;;;;;;;7.00;0.70;;;7.90;99.90;;;;;;4897930;29;20210;-70
2022/02/07 22:51:55;;;;;;;9.60;1.20;;;7.90;99.90;;;;;;4885344;29;20235;-70
2022/02/07 22:54:21;;;;;;;2.93;0.90;;;7.90;99.90;;;;;;4879348;29;20218;-70
2022/02/07 22:56:50;;;;;;;6.37;1.33;;;7.90;99.90;;;;;;4879165;29;20211;-70
2022/02/07 22:59:17;;;;;;;4.27;1.30;;;7.90;99.90;;;;;;4879185;29;20221;-70
2022/02/07 23:01:44;;;;;;;7.43;0.60;;;7.80;99.90;;;;;;4878524;29;20215;-70
2022/02/07 23:04:16;;;;;;;7.80;0.90;;;7.90;99.90;;;;;;4878778;29;20215;-69
2022/02/07 23:06:43;;;;;;;5.77;0.70;;;7.80;99.90;;;;;;4882768;29;20278;-70
2022/02/07 23:09:17;;;;;;;6.27;1.30;;;7.80;99.90;;;;;;4897398;29;20584;-70
2022/02/07 23:12:05;;;;;;;9.33;1.40;;;7.60;99.90;;;;;;4897544;29;20264;-70
2022/02/07 23:14:56;;;;;;;7.53;1.17;;;7.50;99.90;;;;;;4897533;29;20216;-70
2022/02/07 23:17:32;;;;;;;4.73;1.13;;;7.50;99.90;;;;;;4897507;29;20760;-70
2022/02/07 23:20:08;;;;;;;4.00;1.10;;;7.50;99.90;;;;;;4897319;29;20232;-70
2022/02/07 23:31:00;;;;;;;5.23;0.97;;;7.30;99.90;;;;;;4897612;29;20229;-70
2022/02/07 23:36:14;;;;;;;9.07;1.17;;;7.30;99.90;;;;;;4897462;29;20220;-69
2022/02/07 23:38:49;;;;;;;4.27;1.13;;;7.30;99.90;;;;;;4899320;29;20229;-69
2022/02/07 23:41:27;;;;;;;3.27;0.73;;;7.40;99.90;;;;;;4901127;29;20220;-69
2022/02/07 23:43:57;;;;;;;6.60;1.30;;;7.40;99.90;;;;;;4901364;29;20218;-69
2022/02/07 23:46:31;;;;;;;3.30;1.50;;;7.40;99.90;;;;;;4901610;29;20217;-69
2022/02/07 23:49:04;;;;;;;4.13;1.27;;;7.30;99.90;;;;;;4901173;29;20293;-69
2022/02/07 23:51:39;;;;;;;5.33;0.73;;;7.40;99.90;;;;;;4891745;29;20211;-69
2022/02/07 23:54:17;;;;;;;4.77;1.37;;;7.30;99.90;;;;;;4881956;29;20244;-69
2022/02/07 23:56:59;;;;;;;9.63;1.37;;;7.30;99.90;;;;;;4882507;29;20215;-69
2022/02/07 23:59:32;;;;;;;3.93;0.83;;;7.30;99.90;;;;;;4882414;29;20217;-69
